Time;durP1;ratioP1;P1;durP2;ratioP2;P2;SDS_P1;SDS_P2;PMS_P1;PMS_P2;Temp;Humidity;BMP_temperature;BMP_pressure;BME280_temperature;BME280_humidity;BME280_pressure;Samples;Min_cycle;Max_cycle;Signal;HPM_P1;HPM_P2
2021/01/01 00:00:31;;;;;;;26.42;15.15;;;2.70;99.90;;;;;;5053417;28;20024;-82
2021/01/01 00:03:00;;;;;;;46.45;29.02;;;2.60;99.90;;;;;;5030400;28;20442;-81
2021/01/01 00:05:26;;;;;;;45.83;24.45;;;2.70;99.90;;;;;;5013425;28;20029;-81
2021/01/01 00:07:52;;;;;;;35.38;23.38;;;2.70;99.90;;;;;;5013522;28;20026;-80
2021/01/01 00:10:18;;;;;;;30.25;15.70;;;2.60;99.90;;;;;;5012372;28;20367;-83
2021/01/01 00:12:43;;;;;;;30.73;17.27;;;2.60;99.90;;;;;;5031932;28;20398;-81
2021/01/01 00:15:10;;;;;;;34.35;16.92;;;2.60;99.90;;;;;;5033027;28;20504;-80
2021/01/01 00:17:35;;;;;;;26.65;15.25;;;2.60;99.90;;;;;;5033050;28;20120;-82
2021/01/01 00:20:01;;;;;;;25.45;13.80;;;2.60;99.90;;;;;;5031964;28;20113;-83
2021/01/01 00:22:27;;;;;;;23.83;14.02;;;2.60;99.90;;;;;;5018435;28;20053;-83
2021/01/01 00:24:52;;;;;;;19.25;13.40;;;2.60;99.90;;;;;;5013065;28;20297;-83
2021/01/01 00:27:18;;;;;;;24.05;13.85;;;2.60;99.90;;;;;;5013231;28;20033;-83
2021/01/01 00:29:44;;;;;;;27.30;16.08;;;2.60;99.90;;;;;;5013261;28;20088;-82
2021/01/01 00:32:09;;;;;;;25.33;15.52;;;2.60;99.90;;;;;;5020757;28;20039;-83
2021/01/01 00:34:35;;;;;;;31.95;16.73;;;2.70;99.90;;;;;;5031471;28;20025;-81
2021/01/01 00:37:01;;;;;;;30.80;15.05;;;2.70;99.90;;;;;;5031392;28;20060;-81
2021/01/01 00:39:27;;;;;;;31.23;15.68;;;2.60;99.90;;;;;;5032900;28;20075;-81
2021/01/01 00:41:53;;;;;;;29.73;15.82;;;2.60;99.90;;;;;;5020019;28;20025;-81
2021/01/01 00:44:19;;;;;;;20.15;13.55;;;2.70;99.90;;;;;;5012598;28;20017;-81
2021/01/01 00:46:44;;;;;;;30.80;16.58;;;2.70;99.90;;;;;;5011654;28;20033;-81
2021/01/01 00:49:10;;;;;;;40.08;19.80;;;2.70;99.90;;;;;;5012881;28;20034;-81
2021/01/01 00:51:35;;;;;;;37.58;19.55;;;2.80;99.90;;;;;;5019868;28;20533;-81
2021/01/01 00:54:02;;;;;;;25.70;16.00;;;2.70;99.90;;;;;;5032200;28;20120;-81
2021/01/01 00:56:29;;;;;;;26.05;15.75;;;2.70;99.90;;;;;;5032163;28;20034;-81
2021/01/01 00:58:56;;;;;;;27.10;16.30;;;2.70;99.90;;;;;;5032477;28;20021;-81
2021/01/01 01:01:28;;;;;;;25.08;14.13;;;2.60;99.90;;;;;;5028206;28;20108;-84
2021/01/01 01:03:56;;;;;;;26.13;14.80;;;2.60;99.90;;;;;;5012458;28;20058;-83
2021/01/01 01:06:23;;;;;;;26.15;14.63;;;2.60;99.90;;;;;;5011309;28;20560;-81
2021/01/01 01:08:49;;;;;;;22.48;14.32;;;2.50;99.90;;;;;;5012607;28;20037;-80
2021/01/01 01:11:16;;;;;;;23.52;13.13;;;2.60;99.90;;;;;;5019618;28;20033;-80
2021/01/01 01:13:42;;;;;;;24.67;13.60;;;2.50;99.90;;;;;;5032054;28;20098;-80
2021/01/01 01:16:07;;;;;;;25.50;15.63;;;2.50;99.90;;;;;;5030843;28;20029;-81
2021/01/01 01:18:33;;;;;;;38.88;19.75;;;2.40;99.90;;;;;;5030889;28;20068;-80
2021/01/01 01:20:59;;;;;;;38.67;19.33;;;2.40;99.90;;;;;;5029548;28;20022;-81
2021/01/01 01:23:25;;;;;;;39.17;21.65;;;2.40;99.90;;;;;;5012343;28;20490;-81
2021/01/01 01:25:51;;;;;;;40.33;21.58;;;2.30;99.90;;;;;;5010803;28;20505;-81
2021/01/01 01:28:17;;;;;;;37.22;20.50;;;2.30;99.90;;;;;;5012299;28;20109;-80
2021/01/01 01:30:43;;;;;;;44.20;22.75;;;2.20;99.90;;;;;;5012290;28;20053;-81
2021/01/01 01:33:09;;;;;;;49.72;23.00;;;2.20;99.90;;;;;;5028878;28;20044;-80
2021/01/01 01:35:35;;;;;;;44.78;23.33;;;2.20;99.90;;;;;;5030396;28;20029;-80
2021/01/01 01:38:02;;;;;;;43.58;23.83;;;2.20;99.90;;;;;;5030564;28;20112;-80
2021/01/01 01:40:28;;;;;;;49.50;23.85;;;2.10;99.90;;;;;;5029486;28;20022;-81
2021/01/01 01:42:53;;;;;;;48.83;24.98;;;2.20;99.90;;;;;;5012122;28;20026;-80
2021/01/01 01:45:19;;;;;;;59.17;29.75;;;2.20;99.90;;;;;;5011730;28;20497;-81
2021/01/01 01:47:46;;;;;;;65.82;31.38;;;2.20;99.90;;;;;;5012073;28;20101;-81
2021/01/01 01:50:14;;;;;;;50.05;26.70;;;2.20;99.90;;;;;;5012025;28;20030;-81
2021/01/01 01:52:40;;;;;;;58.80;29.52;;;2.20;99.90;;;;;;5027695;28;20096;-80
2021/01/01 01:55:08;;;;;;;61.92;30.45;;;2.20;99.90;;;;;;5031345;28;20033;-80
2021/01/01 01:57:33;;;;;;;58.47;30.90;;;2.10;99.90;;;;;;5034909;28;20021;-84
2021/01/01 02:00:06;;;;;;;66.63;32.00;;;2.10;99.90;;;;;;5032854;28;20397;-85
2021/01/01 02:02:31;;;;;;;54.88;29.38;;;2.10;99.90;;;;;;5034438;28;20387;-85
2021/01/01 02:04:58;;;;;;;59.60;27.55;;;2.10;99.90;;;;;;5035515;28;20024;-84
2021/01/01 02:07:24;;;;;;;67.60;29.40;;;2.20;99.90;;;;;;5035670;28;20026;-84
2021/01/01 02:09:49;;;;;;;61.17;27.25;;;2.10;99.90;;;;;;5022710;28;20030;-85
2021/01/01 02:12:17;;;;;;;53.42;27.98;;;2.10;99.90;;;;;;5015804;28;20512;-85
2021/01/01 02:14:43;;;;;;;58.13;27.20;;;2.10;99.90;;;;;;5014427;28;20030;-84
2021/01/01 02:17:09;;;;;;;65.05;26.75;;;2.10;99.90;;;;;;5014309;28;20482;-84
2021/01/01 02:19:35;;;;;;;61.67;27.48;;;2.00;99.90;;;;;;5023123;28;20026;-84
2021/01/01 02:22:02;;;;;;;55.25;27.73;;;2.00;99.90;;;;;;5035390;28;20022;-84
2021/01/01 02:24:28;;;;;;;55.53;27.42;;;2.10;99.90;;;;;;5033886;28;20056;-84
2021/01/01 02:26:54;;;;;;;58.80;26.35;;;2.10;99.90;;;;;;5021354;28;20446;-84
2021/01/01 02:29:19;;;;;;;48.88;26.95;;;2.00;99.90;;;;;;5015509;28;20025;-84
2021/01/01 02:31:45;;;;;;;57.40;28.80;;;2.00;99.90;;;;;;5015310;28;20034;-84
2021/01/01 02:34:11;;;;;;;62.33;28.45;;;2.00;99.90;;;;;;5013906;28;20028;-84
2021/01/01 02:36:37;;;;;;;53.55;25.67;;;1.90;99.90;;;;;;5022361;28;20037;-84
2021/01/01 02:39:03;;;;;;;57.38;26.48;;;1.90;99.90;;;;;;5035108;28;20032;-85
2021/01/01 02:41:29;;;;;;;48.70;25.38;;;1.90;99.90;;;;;;5033449;28;20026;-84
2021/01/01 02:43:55;;;;;;;47.17;19.27;;;1.90;99.90;;;;;;5034422;28;20515;-84
2021/01/01 02:46:20;;;;;;;38.88;20.13;;;1.90;99.90;;;;;;5013682;28;20635;-84
2021/01/01 02:48:46;;;;;;;37.25;17.73;;;1.80;99.90;;;;;;5015098;28;20045;-84
2021/01/01 02:51:11;;;;;;;35.28;18.77;;;1.80;99.90;;;;;;5015094;28;20104;-84
2021/01/01 02:53:37;;;;;;;42.28;20.25;;;1.90;99.90;;;;;;5015006;28;20044;-84
2021/01/01 02:56:03;;;;;;;37.65;17.83;;;1.80;99.90;;;;;;5028706;28;20030;-84
2021/01/01 02:58:28;;;;;;;43.30;18.15;;;1.80;99.90;;;;;;5034718;28;20072;-84
2021/01/01 03:00:54;;;;;;;43.63;19.70;;;1.80;99.90;;;;;;5034489;28;20500;-84
2021/01/01 03:03:19;;;;;;;35.95;16.48;;;1.80;99.90;;;;;;5031389;28;20441;-85
2021/01/01 03:05:46;;;;;;;37.78;18.95;;;1.70;99.90;;;;;;5034313;28;20021;-84
2021/01/01 03:08:11;;;;;;;38.60;19.48;;;1.70;99.90;;;;;;5033275;28;20577;-84
2021/01/01 03:10:37;;;;;;;36.05;18.08;;;1.70;99.90;;;;;;5032245;28;20064;-84
2021/01/01 03:13:02;;;;;;;39.00;18.73;;;1.70;99.90;;;;;;5013421;28;20040;-84
2021/01/01 03:15:28;;;;;;;39.72;20.13;;;1.80;99.90;;;;;;5014304;28;20030;-84
2021/01/01 03:17:54;;;;;;;35.95;18.70;;;1.70;99.90;;;;;;5013282;28;20451;-85
2021/01/01 03:20:20;;;;;;;38.78;18.75;;;1.70;99.90;;;;;;5013329;28;20371;-85
2021/01/01 03:22:45;;;;;;;34.70;18.05;;;1.70;99.90;;;;;;5048000;28;20052;-84
2021/01/01 03:25:11;;;;;;;36.22;16.75;;;1.70;99.90;;;;;;5053910;28;20473;-84
2021/01/01 03:27:37;;;;;;;39.15;18.15;;;1.70;99.90;;;;;;5053820;28;20104;-84
2021/01/01 03:30:05;;;;;;;31.55;16.48;;;1.70;99.90;;;;;;5053952;28;20039;-84
2021/01/01 03:32:30;;;;;;;43.05;19.70;;;1.60;99.90;;;;;;5041118;28;20025;-84
2021/01/01 03:34:57;;;;;;;39.67;18.98;;;1.60;99.90;;;;;;5033172;28;20029;-84
2021/01/01 03:37:23;;;;;;;45.75;19.30;;;1.60;99.90;;;;;;5031859;28;20053;-84
2021/01/01 03:39:49;;;;;;;38.03;17.58;;;1.50;99.90;;;;;;5032664;28;20053;-83
2021/01/01 03:42:15;;;;;;;43.20;18.52;;;1.50;99.90;;;;;;5017095;28;20026;-84
2021/01/01 03:44:40;;;;;;;32.00;17.33;;;1.40;99.90;;;;;;5013734;28;20030;-84
2021/01/01 03:47:06;;;;;;;40.58;18.85;;;1.50;99.90;;;;;;5014123;28;20437;-84
2021/01/01 03:49:32;;;;;;;42.70;19.23;;;1.50;99.90;;;;;;5014058;28;20093;-85
2021/01/01 03:51:58;;;;;;;42.38;19.17;;;1.50;99.90;;;;;;5023856;28;20059;-84
2021/01/01 03:54:24;;;;;;;39.72;20.65;;;1.40;99.90;;;;;;5033378;28;20525;-83
2021/01/01 03:56:49;;;;;;;41.42;19.98;;;1.40;99.90;;;;;;5021406;28;20069;-84
2021/01/01 03:59:15;;;;;;;37.03;18.17;;;1.40;99.90;;;;;;5013716;28;20088;-84
2021/01/01 04:01:40;;;;;;;52.05;19.13;;;1.30;99.90;;;;;;5018411;28;20028;-84
2021/01/01 04:04:06;;;;;;;44.13;18.77;;;1.30;99.90;;;;;;5033270;28;20022;-84
2021/01/01 04:06:32;;;;;;;40.03;19.27;;;1.30;99.90;;;;;;5033612;28;20021;-84
2021/01/01 04:08:57;;;;;;;35.20;16.42;;;1.30;99.90;;;;;;5033437;28;20513;-84
2021/01/01 04:11:23;;;;;;;66.93;18.58;;;1.20;99.90;;;;;;5024965;28;20704;-84
2021/01/01 04:13:48;;;;;;;39.28;18.30;;;1.20;99.90;;;;;;5013116;28;20091;-84
2021/01/01 04:16:14;;;;;;;44.78;21.23;;;1.20;99.90;;;;;;5012189;28;20060;-83
2021/01/01 04:18:39;;;;;;;44.90;20.63;;;1.20;99.90;;;;;;5013048;28;20018;-84
2021/01/01 04:21:08;;;;;;;45.47;20.48;;;1.20;99.90;;;;;;5015873;28;20289;-84
2021/01/01 04:23:34;;;;;;;46.88;20.42;;;1.20;99.90;;;;;;5032091;28;20033;-84
2021/01/01 04:26:00;;;;;;;49.03;21.55;;;1.30;99.90;;;;;;5031259;28;20022;-84
2021/01/01 04:28:26;;;;;;;47.33;23.00;;;1.30;99.90;;;;;;5031729;28;20068;-84
2021/01/01 04:30:52;;;;;;;49.70;22.05;;;1.30;99.90;;;;;;5031847;28;20107;-84
2021/01/01 04:33:17;;;;;;;52.63;22.13;;;1.30;99.90;;;;;;5014616;28;20434;-84
2021/01/01 04:35:43;;;;;;;52.00;22.25;;;1.30;99.90;;;;;;5012994;28;20040;-84
2021/01/01 04:38:11;;;;;;;48.53;22.08;;;1.20;99.90;;;;;;5011787;28;20481;-84
2021/01/01 04:40:39;;;;;;;48.00;21.63;;;1.30;99.90;;;;;;5013453;28;20029;-84
2021/01/01 04:43:05;;;;;;;51.08;21.55;;;1.30;99.90;;;;;;5031527;28;20028;-84
2021/01/01 04:45:31;;;;;;;47.42;21.35;;;1.30;99.90;;;;;;5032716;28;20029;-84
2021/01/01 04:47:57;;;;;;;46.63;20.60;;;1.30;99.90;;;;;;5032771;28;20075;-84
2021/01/01 04:50:23;;;;;;;50.40;22.38;;;1.30;99.90;;;;;;5032612;28;20029;-83
2021/01/01 04:52:49;;;;;;;47.63;21.60;;;1.30;99.90;;;;;;5014229;28;20037;-84
2021/01/01 04:55:16;;;;;;;51.08;23.77;;;1.30;99.90;;;;;;5011310;28;20033;-84
2021/01/01 04:57:42;;;;;;;53.63;21.52;;;1.30;99.90;;;;;;5012628;28;20080;-84
2021/01/01 05:00:09;;;;;;;46.67;21.25;;;1.30;99.90;;;;;;5011491;28;20026;-84
2021/01/01 05:02:34;;;;;;;44.17;21.08;;;1.30;99.90;;;;;;5023241;28;20448;-84
2021/01/01 05:05:00;;;;;;;50.80;23.65;;;1.30;99.90;;;;;;5032197;28;20025;-84
2021/01/01 05:07:28;;;;;;;46.10;21.35;;;1.30;99.90;;;;;;5032416;28;20070;-84
2021/01/01 05:09:55;;;;;;;47.97;22.85;;;1.30;99.90;;;;;;5032268;28;20555;-83
2021/01/01 05:12:30;;;;;;;45.60;22.40;;;1.40;99.90;;;;;;5016020;28;20123;-84
2021/01/01 05:14:56;;;;;;;50.97;22.98;;;1.30;99.90;;;;;;5012282;28;20018;-84
2021/01/01 05:17:34;;;;;;;48.10;22.20;;;1.30;99.90;;;;;;5012446;28;20433;-83
2021/01/01 05:20:05;;;;;;;51.85;22.38;;;1.40;99.90;;;;;;5012529;28;20099;-84
2021/01/01 05:22:33;;;;;;;48.22;21.52;;;1.30;99.90;;;;;;5025268;28;20025;-84
2021/01/01 05:25:03;;;;;;;44.67;19.77;;;1.30;99.90;;;;;;5031863;28;20197;-84
2021/01/01 05:27:34;;;;;;;56.95;22.98;;;1.30;99.90;;;;;;5031786;28;20052;-84
2021/01/01 05:30:00;;;;;;;48.25;22.00;;;1.30;99.90;;;;;;5031676;28;20125;-84
2021/01/01 05:32:30;;;;;;;51.22;22.80;;;1.30;99.90;;;;;;5019188;28;20022;-84
2021/01/01 05:34:58;;;;;;;49.60;23.52;;;1.30;99.90;;;;;;5012003;28;20061;-84
2021/01/01 05:37:31;;;;;;;45.42;20.95;;;1.30;99.90;;;;;;5012185;28;20034;-84
2021/01/01 05:40:07;;;;;;;41.58;20.02;;;1.20;99.90;;;;;;5012181;28;20018;-84
2021/01/01 05:42:36;;;;;;;48.15;21.63;;;1.20;99.90;;;;;;5028191;28;20053;-84
2021/01/01 05:45:18;;;;;;;44.33;20.70;;;1.30;99.90;;;;;;5031669;28;20482;-84
2021/01/01 05:48:07;;;;;;;43.92;20.10;;;1.30;99.90;;;;;;5030634;28;20032;-84
2021/01/01 05:50:34;;;;;;;47.65;20.85;;;1.20;99.90;;;;;;5031736;28;20040;-84
2021/01/01 05:53:16;;;;;;;45.70;20.23;;;1.20;99.90;;;;;;5011824;28;20026;-84
2021/01/01 05:55:43;;;;;;;44.88;22.33;;;1.30;99.90;;;;;;5011634;28;20052;-84
2021/01/01 05:58:18;;;;;;;43.47;20.80;;;1.20;99.90;;;;;;5011891;28;20022;-84
2021/01/01 06:00:44;;;;;;;49.92;21.88;;;1.20;99.90;;;;;;5011891;28;20033;-83
2021/01/01 06:03:19;;;;;;;44.85;19.60;;;1.30;99.90;;;;;;5027399;28;20032;-84
2021/01/01 06:05:51;;;;;;;49.30;20.55;;;1.30;99.90;;;;;;5030209;28;20470;-84
2021/01/01 06:08:22;;;;;;;45.65;19.42;;;1.30;99.90;;;;;;5031625;28;20056;-84
2021/01/01 06:10:50;;;;;;;39.40;19.88;;;1.30;99.90;;;;;;5026997;28;20034;-83
2021/01/01 06:13:19;;;;;;;44.33;19.35;;;1.40;99.90;;;;;;5011915;28;20021;-85
2021/01/01 06:15:54;;;;;;;43.55;20.23;;;1.30;99.90;;;;;;5011633;28;20557;-84
2021/01/01 06:18:30;;;;;;;39.28;18.42;;;1.30;99.90;;;;;;5010588;28;20030;-84
2021/01/01 06:21:05;;;;;;;46.17;21.75;;;1.30;99.90;;;;;;5011640;28;20393;-84
2021/01/01 06:23:33;;;;;;;45.40;20.83;;;1.40;99.90;;;;;;5031532;28;20053;-84
2021/01/01 06:26:01;;;;;;;41.55;19.73;;;1.40;99.90;;;;;;5029660;28;20629;-84
2021/01/01 06:28:28;;;;;;;41.80;20.10;;;1.40;99.90;;;;;;5030191;28;20430;-84
2021/01/01 06:30:55;;;;;;;53.22;23.00;;;1.40;99.90;;;;;;5030189;28;20025;-84
2021/01/01 06:33:21;;;;;;;51.33;22.73;;;1.40;99.90;;;;;;5011618;28;20022;-84
2021/01/01 06:35:46;;;;;;;52.10;22.20;;;1.40;99.90;;;;;;5011486;28;20018;-83
2021/01/01 06:38:36;;;;;;;44.58;21.00;;;1.40;99.90;;;;;;5011581;28;20394;-83
2021/01/01 06:41:03;;;;;;;50.13;21.27;;;1.50;99.90;;;;;;5021928;28;20033;-84
2021/01/01 06:43:54;;;;;;;48.30;21.05;;;1.50;99.90;;;;;;5053192;28;20029;-83
2021/01/01 06:46:35;;;;;;;49.50;21.08;;;1.40;99.90;;;;;;5047368;28;20390;-84
2021/01/01 06:49:03;;;;;;;46.42;21.60;;;1.50;99.90;;;;;;5054895;28;20033;-84
2021/01/01 06:51:30;;;;;;;43.45;20.95;;;1.50;99.90;;;;;;5047879;28;20025;-84
2021/01/01 06:54:09;;;;;;;43.60;20.60;;;1.50;99.90;;;;;;5034563;28;20250;-83
2021/01/01 06:56:35;;;;;;;44.75;21.58;;;1.50;99.90;;;;;;5033213;28;20025;-84
2021/01/01 06:59:08;;;;;;;39.25;19.50;;;1.50;99.90;;;;;;5033522;28;20391;-83
2021/01/01 07:01:40;;;;;;;43.42;20.08;;;1.50;99.90;;;;;;5029523;28;20490;-83
2021/01/01 07:04:06;;;;;;;47.53;20.58;;;1.50;99.90;;;;;;5014773;28;20034;-84
2021/01/01 07:06:33;;;;;;;40.58;18.55;;;1.50;99.90;;;;;;5017791;28;20171;-84
2021/01/01 07:09:00;;;;;;;44.80;20.45;;;1.50;99.90;;;;;;5034548;28;20481;-84
2021/01/01 07:11:25;;;;;;;40.95;19.92;;;1.50;99.90;;;;;;5032932;28;20025;-84
2021/01/01 07:13:56;;;;;;;37.97;19.35;;;1.40;99.90;;;;;;5034315;28;20108;-84
2021/01/01 07:16:24;;;;;;;41.05;19.27;;;1.40;99.90;;;;;;5033182;28;20375;-84
2021/01/01 07:18:51;;;;;;;39.58;18.67;;;1.40;99.90;;;;;;5013598;28;20022;-83
2021/01/01 07:21:18;;;;;;;42.42;19.23;;;1.40;99.90;;;;;;5013187;28;20068;-84
2021/01/01 07:23:45;;;;;;;33.05;16.52;;;1.40;99.90;;;;;;5012990;28;20528;-84
2021/01/01 07:26:12;;;;;;;33.15;16.67;;;1.40;99.90;;;;;;5020570;28;20451;-84
2021/01/01 07:28:42;;;;;;;31.05;17.00;;;1.30;99.90;;;;;;5034202;28;20021;-84
2021/01/01 07:31:13;;;;;;;43.55;19.77;;;1.30;99.90;;;;;;5032961;28;20022;-84
2021/01/01 07:33:39;;;;;;;38.45;18.10;;;1.30;99.90;;;;;;5034048;28;20022;-84
2021/01/01 07:36:07;;;;;;;37.97;18.00;;;1.20;99.90;;;;;;5029785;28;20034;-84
2021/01/01 07:38:35;;;;;;;37.92;18.40;;;1.20;99.90;;;;;;5012975;28;20028;-84
2021/01/01 07:41:01;;;;;;;34.20;17.17;;;1.10;99.90;;;;;;5014182;28;20486;-84
2021/01/01 07:43:28;;;;;;;34.45;17.50;;;1.30;99.90;;;;;;5014178;28;20100;-83
2021/01/01 07:45:59;;;;;;;34.40;17.52;;;1.10;99.90;;;;;;5012651;28;20029;-83
2021/01/01 07:48:25;;;;;;;32.40;16.33;;;1.10;99.90;;;;;;5031469;28;20121;-84
2021/01/01 07:50:52;;;;;;;34.25;17.13;;;1.20;99.90;;;;;;5032577;28;20057;-84
2021/01/01 07:53:17;;;;;;;33.53;16.20;;;1.10;99.90;;;;;;5033028;28;20057;-84
2021/01/01 07:55:43;;;;;;;37.67;17.35;;;1.10;99.90;;;;;;5029257;28;20524;-84
2021/01/01 07:58:11;;;;;;;33.78;15.98;;;1.10;99.90;;;;;;5012628;28;20025;-84
2021/01/01 08:00:39;;;;;;;31.52;15.60;;;1.10;99.90;;;;;;5011923;28;20049;-83
2021/01/01 08:03:06;;;;;;;35.38;16.55;;;1.10;99.90;;;;;;5012116;28;20033;-84
2021/01/01 08:05:32;;;;;;;30.60;15.35;;;1.10;99.90;;;;;;5012045;28;20091;-84
2021/01/01 08:08:19;;;;;;;37.63;16.75;;;1.10;99.90;;;;;;5012664;28;20116;-84
2021/01/01 08:10:46;;;;;;;44.60;18.30;;;1.10;99.90;;;;;;5012277;28;20026;-84
2021/01/01 08:13:20;;;;;;;35.45;17.85;;;1.10;99.90;;;;;;5012186;28;20478;-83
2021/01/01 08:15:47;;;;;;;39.00;16.83;;;1.00;99.90;;;;;;5012031;28;20055;-84
2021/01/01 08:18:20;;;;;;;33.83;15.55;;;1.00;99.90;;;;;;5028906;28;20656;-83
2021/01/01 08:20:48;;;;;;;32.50;15.25;;;1.00;99.90;;;;;;5033240;28;20496;-84
2021/01/01 08:23:18;;;;;;;30.63;15.35;;;1.10;99.90;;;;;;5031831;28;20028;-84
2021/01/01 08:25:46;;;;;;;34.55;15.27;;;1.10;99.90;;;;;;5030008;28;20475;-84
2021/01/01 08:28:34;;;;;;;37.03;16.08;;;1.00;99.90;;;;;;5011815;28;20032;-84
2021/01/01 08:31:04;;;;;;;33.42;16.13;;;1.10;99.90;;;;;;5011416;28;20029;-84
2021/01/01 08:33:54;;;;;;;31.58;15.25;;;1.10;99.90;;;;;;5011792;28;20609;-83
2021/01/01 08:36:30;;;;;;;33.20;15.45;;;1.10;99.90;;;;;;5010303;28;20049;-86
2021/01/01 08:39:11;;;;;;;30.15;14.88;;;1.10;99.90;;;;;;5031679;28;20474;-87
2021/01/01 08:41:47;;;;;;;35.20;16.92;;;1.10;99.90;;;;;;5031187;28;20159;-85
2021/01/01 08:44:14;;;;;;;35.15;15.90;;;1.10;99.90;;;;;;5031222;28;20048;-84
2021/01/01 08:46:40;;;;;;;52.50;19.05;;;1.10;99.90;;;;;;5026581;28;20030;-85
2021/01/01 08:49:15;;;;;;;40.85;17.20;;;1.20;99.90;;;;;;5012876;28;20109;-85
2021/01/01 08:51:41;;;;;;;37.83;17.30;;;1.20;99.90;;;;;;5012684;28;20025;-84
2021/01/01 08:54:07;;;;;;;31.73;14.50;;;1.10;99.90;;;;;;5012565;28;20026;-84
2021/01/01 08:56:33;;;;;;;32.92;14.65;;;1.20;99.90;;;;;;5020257;28;20029;-85
2021/01/01 08:59:08;;;;;;;31.95;15.25;;;1.20;99.90;;;;;;5032504;28;20060;-85
2021/01/01 09:01:34;;;;;;;30.15;15.23;;;1.20;99.90;;;;;;5031946;28;20021;-85
2021/01/01 09:04:01;;;;;;;30.45;15.20;;;1.20;99.90;;;;;;5030988;28;20044;-86
2021/01/01 09:06:27;;;;;;;32.65;14.85;;;1.30;99.90;;;;;;5026540;28;20367;-85
2021/01/01 09:09:06;;;;;;;34.67;16.63;;;1.30;99.90;;;;;;5011180;28;20037;-84
2021/01/01 09:11:32;;;;;;;33.90;15.70;;;1.40;99.90;;;;;;5012416;28;20025;-84
2021/01/01 09:14:03;;;;;;;33.90;16.75;;;1.40;99.90;;;;;;5010992;28;20030;-81
2021/01/01 09:16:29;;;;;;;33.50;16.33;;;1.50;99.90;;;;;;5019855;28;20040;-83
2021/01/01 09:18:55;;;;;;;33.67;15.98;;;1.50;99.90;;;;;;5012275;28;20026;-83
2021/01/01 09:21:21;;;;;;;30.70;14.10;;;1.60;99.90;;;;;;5013515;28;20022;-80
2021/01/01 09:23:54;;;;;;;35.10;15.13;;;1.70;99.90;;;;;;5031696;28;20144;-83
2021/01/01 09:26:28;;;;;;;36.55;15.13;;;1.80;99.90;;;;;;5030777;28;20018;-80
2021/01/01 09:29:08;;;;;;;34.38;15.23;;;1.90;99.90;;;;;;5030759;28;20025;-79
2021/01/01 09:31:36;;;;;;;41.33;16.80;;;2.00;99.90;;;;;;5031773;28;20026;-79
2021/01/01 09:34:03;;;;;;;35.70;14.95;;;2.10;99.90;;;;;;5031807;28;20022;-80
2021/01/01 09:36:32;;;;;;;34.92;13.85;;;2.20;99.90;;;;;;5026531;28;20494;-79
2021/01/01 09:38:59;;;;;;;35.15;16.38;;;2.30;99.90;;;;;;5012107;28;20030;-81
2021/01/01 09:41:25;;;;;;;32.83;15.50;;;2.30;99.90;;;;;;5010781;28;20079;-81
2021/01/01 09:43:51;;;;;;;30.05;15.75;;;2.40;99.90;;;;;;5010628;28;20492;-82
2021/01/01 09:46:17;;;;;;;31.20;15.32;;;2.50;99.90;;;;;;5010949;28;20107;-80
2021/01/01 09:48:42;;;;;;;33.53;15.13;;;2.60;99.90;;;;;;5031704;28;20025;-81
2021/01/01 09:51:08;;;;;;;33.20;14.57;;;2.70;99.90;;;;;;5031632;28;20025;-80
2021/01/01 09:53:33;;;;;;;27.75;13.52;;;2.70;99.90;;;;;;5030356;28;20412;-78
2021/01/01 09:55:59;;;;;;;35.47;15.15;;;2.70;99.90;;;;;;5035506;28;20112;-79
2021/01/01 09:58:24;;;;;;;25.50;13.68;;;2.80;99.90;;;;;;5050195;28;20025;-78
2021/01/01 10:00:51;;;;;;;28.00;13.73;;;2.80;99.90;;;;;;5051550;28;20044;-79
2021/01/01 10:03:16;;;;;;;31.73;14.52;;;2.80;99.90;;;;;;5051851;28;20025;-77
2021/01/01 10:05:42;;;;;;;29.80;14.50;;;2.80;99.90;;;;;;5039603;28;20018;-78
2021/01/01 10:08:07;;;;;;;32.92;16.05;;;2.80;99.90;;;;;;5043321;28;20033;-79
2021/01/01 10:10:33;;;;;;;29.02;14.73;;;2.70;99.90;;;;;;5031338;28;20132;-80
2021/01/01 10:13:01;;;;;;;34.75;15.82;;;2.70;99.90;;;;;;5031357;28;20099;-80
2021/01/01 10:15:27;;;;;;;32.00;15.38;;;2.70;99.90;;;;;;5031242;28;20068;-79
2021/01/01 10:17:52;;;;;;;25.33;14.38;;;2.60;99.90;;;;;;5019536;28;20073;-80
2021/01/01 10:20:18;;;;;;;27.88;14.07;;;2.60;99.90;;;;;;5015489;28;20490;-79
2021/01/01 10:22:44;;;;;;;32.03;15.40;;;2.70;99.90;;;;;;5015581;28;20543;-81
2021/01/01 10:25:10;;;;;;;28.80;14.98;;;2.60;99.90;;;;;;5015249;28;20522;-82
2021/01/01 10:27:36;;;;;;;30.10;15.55;;;2.60;99.90;;;;;;5032833;28;20520;-83
2021/01/01 10:30:06;;;;;;;29.65;14.45;;;2.60;99.90;;;;;;5035357;28;20037;-84
2021/01/01 10:32:32;;;;;;;33.63;15.73;;;2.60;99.90;;;;;;5034013;28;20244;-84
2021/01/01 10:34:57;;;;;;;33.25;15.30;;;2.60;99.90;;;;;;5033598;28;20580;-81
2021/01/01 10:37:23;;;;;;;33.38;15.60;;;2.60;99.90;;;;;;5020689;28;20030;-82
2021/01/01 10:39:48;;;;;;;27.45;14.82;;;2.60;99.90;;;;;;5013975;28;20021;-82
2021/01/01 10:42:14;;;;;;;32.63;16.77;;;2.70;99.90;;;;;;5014001;28;20025;-82
2021/01/01 10:44:39;;;;;;;25.40;14.43;;;2.60;99.90;;;;;;5015065;28;20037;-83
2021/01/01 10:47:05;;;;;;;25.98;13.57;;;2.60;99.90;;;;;;5021137;28;20037;-82
2021/01/01 10:49:30;;;;;;;32.22;15.80;;;2.70;99.90;;;;;;5034803;28;20025;-82
2021/01/01 10:51:57;;;;;;;30.13;14.43;;;2.80;99.90;;;;;;5034948;28;20112;-83
2021/01/01 10:54:23;;;;;;;35.00;15.20;;;2.90;99.90;;;;;;5033133;28;20042;-81
2021/01/01 10:56:49;;;;;;;25.75;13.13;;;2.90;99.90;;;;;;5023481;28;20495;-82
2021/01/01 10:59:14;;;;;;;30.70;14.15;;;3.00;99.90;;;;;;5013705;28;20037;-82
2021/01/01 11:01:40;;;;;;;30.45;14.73;;;3.00;99.90;;;;;;5014987;28;20088;-80
2021/01/01 11:04:05;;;;;;;30.60;15.15;;;3.00;99.90;;;;;;5014409;28;20022;-80
2021/01/01 11:06:35;;;;;;;23.48;13.85;;;3.10;99.90;;;;;;5018997;28;20037;-81
2021/01/01 11:09:01;;;;;;;27.85;14.38;;;3.10;99.90;;;;;;5034680;28;20026;-81
2021/01/01 11:11:27;;;;;;;29.17;13.73;;;3.10;99.90;;;;;;5032865;28;20033;-80
2021/01/01 12:25:19;;;;;;;19.02;12.07;;;3.10;99.90;;;;;;5034045;28;20109;-82
2021/01/01 12:27:49;;;;;;;21.27;12.68;;;3.10;99.90;;;;;;5033353;28;20481;-84
2021/01/01 12:30:16;;;;;;;20.33;11.80;;;3.10;99.90;;;;;;5031765;28;20021;-87
2021/01/01 12:32:42;;;;;;;20.52;12.35;;;3.20;99.90;;;;;;5032409;28;20029;-85
2021/01/01 12:35:09;;;;;;;24.45;11.80;;;3.20;99.90;;;;;;5032775;28;20036;-85
2021/01/01 12:37:36;;;;;;;24.42;12.02;;;3.20;99.90;;;;;;5032864;28;20029;-84
2021/01/01 12:40:08;;;;;;;19.08;11.85;;;3.20;99.90;;;;;;5028462;28;20030;-85
2021/01/01 12:42:34;;;;;;;23.77;11.70;;;3.30;99.90;;;;;;5012665;28;20029;-81
2021/01/01 12:45:00;;;;;;;19.65;10.88;;;3.30;99.90;;;;;;5031181;28;20513;-83
2021/01/01 12:47:25;;;;;;;16.77;10.43;;;3.40;99.90;;;;;;5034014;28;20139;-84
2021/01/01 12:49:52;;;;;;;21.40;11.95;;;3.40;99.90;;;;;;5031969;28;20033;-84
2021/01/01 12:52:19;;;;;;;20.80;10.65;;;3.40;99.90;;;;;;5032046;28;20500;-84
2021/01/01 12:54:44;;;;;;;19.17;10.77;;;3.50;99.90;;;;;;5031570;28;20034;-84
2021/01/01 12:57:10;;;;;;;14.13;9.50;;;3.50;99.90;;;;;;5031427;28;20513;-85
2021/01/01 12:59:35;;;;;;;16.35;9.95;;;3.50;99.90;;;;;;5032555;28;20080;-86
2021/01/01 13:02:01;;;;;;;17.92;10.55;;;3.50;99.90;;;;;;5031796;28;20029;-85
2021/01/01 13:04:26;;;;;;;16.67;9.85;;;3.60;99.90;;;;;;5033117;28;20021;-85
2021/01/01 13:06:52;;;;;;;21.13;11.38;;;3.60;99.90;;;;;;5031824;28;20478;-85
2021/01/01 13:09:18;;;;;;;21.88;10.23;;;3.60;99.90;;;;;;5033426;28;20033;-87
2021/01/01 13:11:44;;;;;;;18.70;10.32;;;3.60;99.90;;;;;;5037641;28;20102;-86
2021/01/01 13:14:10;;;;;;;19.42;11.65;;;3.60;99.90;;;;;;5030931;28;20108;-87
2021/01/01 13:16:35;;;;;;;19.02;10.63;;;3.60;99.90;;;;;;5029588;28;20030;-80
2021/01/01 13:19:01;;;;;;;18.40;10.68;;;3.70;99.90;;;;;;5032017;28;20022;-87
2021/01/01 13:21:32;;;;;;;15.73;9.93;;;3.70;99.90;;;;;;5032014;28;20570;-86
2021/01/01 13:24:00;;;;;;;17.50;10.23;;;3.70;99.90;;;;;;5042255;28;20067;-88
2021/01/01 13:26:26;;;;;;;17.05;9.88;;;3.70;99.90;;;;;;5033825;28;20024;-86
2021/01/01 13:28:53;;;;;;;14.77;9.48;;;3.70;99.90;;;;;;5030620;28;20402;-85
2021/01/01 13:31:23;;;;;;;16.90;10.20;;;3.70;99.90;;;;;;5030566;28;20049;-86
2021/01/01 13:33:53;;;;;;;14.70;9.52;;;3.70;99.90;;;;;;5029861;28;20021;-85
2021/01/01 13:36:21;;;;;;;14.23;9.15;;;3.70;99.90;;;;;;5017398;28;20052;-87
2021/01/01 13:38:47;;;;;;;15.82;9.65;;;3.70;99.90;;;;;;5031159;28;20030;-87
2021/01/01 13:41:13;;;;;;;16.58;9.55;;;3.60;99.90;;;;;;5029017;28;20026;-85
2021/01/01 13:43:48;;;;;;;15.60;9.00;;;3.60;99.90;;;;;;5032579;28;20025;-84
2021/01/01 13:46:25;;;;;;;18.23;9.55;;;3.70;99.90;;;;;;5031120;28;20025;-87
2021/01/01 13:48:52;;;;;;;16.80;9.90;;;3.60;99.90;;;;;;5030352;28;20033;-84
2021/01/01 13:51:28;;;;;;;17.88;9.73;;;3.70;99.90;;;;;;5029781;28;20031;-85